sensor_id;sensor_type;location;lat;lon;timestamp;P1;durP1;ratioP1;P2;durP2;ratioP2
16531;SDS011;8378;57.698;11.958;2022-10-16T00:01:45;4.65;;;3.42;;
16531;SDS011;8378;57.698;11.958;2022-10-16T00:04:11;3.63;;;2.92;;
16531;SDS011;8378;57.698;11.958;2022-10-16T00:06:38;4.03;;;3.38;;
16531;SDS011;8378;57.698;11.958;2022-10-16T00:09:03;4.78;;;3.42;;
16531;SDS011;8378;57.698;11.958;2022-10-16T00:11:33;3.35;;;2.80;;
16531;SDS011;8378;57.698;11.958;2022-10-16T00:14:06;3.42;;;3.05;;
16531;SDS011;8378;57.698;11.958;2022-10-16T00:16:34;4.20;;;3.00;;
16531;SDS011;8378;57.698;11.958;2022-10-16T00:18:59;4.32;;;3.47;;
16531;SDS011;8378;57.698;11.958;2022-10-16T00:21:26;4.32;;;3.28;;
16531;SDS011;8378;57.698;11.958;2022-10-16T00:23:55;5.00;;;3.50;;
16531;SDS011;8378;57.698;11.958;2022-10-16T00:26:24;4.88;;;3.08;;
16531;SDS011;8378;57.698;11.958;2022-10-16T00:28:50;4.97;;;3.00;;
16531;SDS011;8378;57.698;11.958;2022-10-16T00:31:17;3.78;;;3.03;;
16531;SDS011;8378;57.698;11.958;2022-10-16T00:33:44;3.78;;;2.78;;
16531;SDS011;8378;57.698;11.958;2022-10-16T00:36:11;2.97;;;2.50;;
16531;SDS011;8378;57.698;11.958;2022-10-16T00:38:39;3.67;;;3.00;;
16531;SDS011;8378;57.698;11.958;2022-10-16T00:41:05;3.50;;;3.15;;
16531;SDS011;8378;57.698;11.958;2022-10-16T00:43:37;3.83;;;2.85;;
16531;SDS011;8378;57.698;11.958;2022-10-16T00:48:39;3.42;;;2.85;;
16531;SDS011;8378;57.698;11.958;2022-10-16T00:51:05;4.90;;;3.20;;
16531;SDS011;8378;57.698;11.958;2022-10-16T00:53:32;3.30;;;2.80;;
16531;SDS011;8378;57.698;11.958;2022-10-16T00:55:58;4.20;;;2.92;;
16531;SDS011;8378;57.698;11.958;2022-10-16T00:58:23;4.05;;;2.90;;
16531;SDS011;8378;57.698;11.958;2022-10-16T01:00:49;4.55;;;3.38;;
16531;SDS011;8378;57.698;11.958;2022-10-16T01:03:26;3.90;;;2.92;;
16531;SDS011;8378;57.698;11.958;2022-10-16T01:09:18;3.83;;;3.10;;
16531;SDS011;8378;57.698;11.958;2022-10-16T01:11:44;4.10;;;3.38;;
16531;SDS011;8378;57.698;11.958;2022-10-16T01:14:26;3.75;;;3.13;;
16531;SDS011;8378;57.698;11.958;2022-10-16T01:17:21;4.65;;;3.40;;
16531;SDS011;8378;57.698;11.958;2022-10-16T01:20:06;5.57;;;3.33;;
16531;SDS011;8378;57.698;11.958;2022-10-16T01:22:56;4.03;;;3.20;;
16531;SDS011;8378;57.698;11.958;2022-10-16T01:28:14;4.75;;;3.65;;
16531;SDS011;8378;57.698;11.958;2022-10-16T01:30:42;4.20;;;3.30;;
16531;SDS011;8378;57.698;11.958;2022-10-16T01:33:13;4.28;;;3.10;;
16531;SDS011;8378;57.698;11.958;2022-10-16T01:35:52;5.28;;;3.33;;
16531;SDS011;8378;57.698;11.958;2022-10-16T01:38:27;3.95;;;3.40;;
16531;SDS011;8378;57.698;11.958;2022-10-16T01:41:01;4.55;;;3.38;;
16531;SDS011;8378;57.698;11.958;2022-10-16T01:43:56;4.25;;;3.40;;
16531;SDS011;8378;57.698;11.958;2022-10-16T01:46:30;4.63;;;3.33;;
16531;SDS011;8378;57.698;11.958;2022-10-16T01:48:56;3.63;;;3.13;;
16531;SDS011;8378;57.698;11.958;2022-10-16T01:51:24;4.20;;;3.47;;
16531;SDS011;8378;57.698;11.958;2022-10-16T01:53:52;5.88;;;3.72;;
16531;SDS011;8378;57.698;11.958;2022-10-16T01:56:20;3.30;;;3.00;;
16531;SDS011;8378;57.698;11.958;2022-10-16T01:58:52;3.28;;;2.97;;
16531;SDS011;8378;57.698;11.958;2022-10-16T02:01:24;4.40;;;3.40;;
16531;SDS011;8378;57.698;11.958;2022-10-16T02:03:54;5.57;;;3.40;;
16531;SDS011;8378;57.698;11.958;2022-10-16T02:06:22;4.35;;;3.00;;
16531;SDS011;8378;57.698;11.958;2022-10-16T02:08:48;4.05;;;2.90;;
16531;SDS011;8378;57.698;11.958;2022-10-16T02:11:14;3.47;;;3.03;;
16531;SDS011;8378;57.698;11.958;2022-10-16T02:13:41;3.20;;;2.67;;
16531;SDS011;8378;57.698;11.958;2022-10-16T02:16:14;4.50;;;2.85;;
16531;SDS011;8378;57.698;11.958;2022-10-16T02:18:40;3.10;;;2.80;;
16531;SDS011;8378;57.698;11.958;2022-10-16T02:26:26;5.25;;;2.90;;
16531;SDS011;8378;57.698;11.958;2022-10-16T02:29:02;3.78;;;2.70;;
16531;SDS011;8378;57.698;11.958;2022-10-16T02:31:32;3.05;;;2.30;;
16531;SDS011;8378;57.698;11.958;2022-10-16T02:34:00;3.33;;;2.30;;
16531;SDS011;8378;57.698;11.958;2022-10-16T02:36:27;2.95;;;2.33;;
16531;SDS011;8378;57.698;11.958;2022-10-16T02:38:54;3.38;;;2.47;;
16531;SDS011;8378;57.698;11.958;2022-10-16T02:41:20;3.05;;;2.30;;
16531;SDS011;8378;57.698;11.958;2022-10-16T02:43:47;2.70;;;2.25;;
16531;SDS011;8378;57.698;11.958;2022-10-16T02:46:14;3.22;;;2.33;;
16531;SDS011;8378;57.698;11.958;2022-10-16T02:48:40;3.35;;;2.38;;
16531;SDS011;8378;57.698;11.958;2022-10-16T02:51:06;4.32;;;2.60;;
16531;SDS011;8378;57.698;11.958;2022-10-16T02:53:31;4.03;;;2.20;;
16531;SDS011;8378;57.698;11.958;2022-10-16T02:55:57;2.63;;;2.00;;
16531;SDS011;8378;57.698;11.958;2022-10-16T02:58:23;2.28;;;1.95;;
16531;SDS011;8378;57.698;11.958;2022-10-16T03:00:49;3.65;;;2.13;;
16531;SDS011;8378;57.698;11.958;2022-10-16T03:03:14;4.20;;;2.30;;
16531;SDS011;8378;57.698;11.958;2022-10-16T03:05:40;3.17;;;2.00;;
16531;SDS011;8378;57.698;11.958;2022-10-16T03:08:07;4.05;;;2.58;;
16531;SDS011;8378;57.698;11.958;2022-10-16T03:10:33;2.80;;;1.90;;
16531;SDS011;8378;57.698;11.958;2022-10-16T03:12:58;4.15;;;2.30;;
16531;SDS011;8378;57.698;11.958;2022-10-16T03:15:24;4.47;;;2.28;;
16531;SDS011;8378;57.698;11.958;2022-10-16T03:17:50;3.78;;;2.00;;
16531;SDS011;8378;57.698;11.958;2022-10-16T03:20:16;2.30;;;1.85;;
16531;SDS011;8378;57.698;11.958;2022-10-16T03:22:41;3.28;;;1.98;;
16531;SDS011;8378;57.698;11.958;2022-10-16T03:25:07;2.67;;;1.83;;
16531;SDS011;8378;57.698;11.958;2022-10-16T03:27:33;2.65;;;1.77;;
16531;SDS011;8378;57.698;11.958;2022-10-16T03:29:58;3.22;;;1.95;;
16531;SDS011;8378;57.698;11.958;2022-10-16T03:32:24;4.18;;;2.00;;
16531;SDS011;8378;57.698;11.958;2022-10-16T03:34:50;2.67;;;1.80;;
16531;SDS011;8378;57.698;11.958;2022-10-16T03:37:15;2.83;;;1.90;;
16531;SDS011;8378;57.698;11.958;2022-10-16T03:39:41;2.60;;;1.70;;
16531;SDS011;8378;57.698;11.958;2022-10-16T03:42:06;3.08;;;1.80;;
16531;SDS011;8378;57.698;11.958;2022-10-16T03:44:32;4.00;;;2.00;;
16531;SDS011;8378;57.698;11.958;2022-10-16T03:46:57;2.28;;;1.58;;
16531;SDS011;8378;57.698;11.958;2022-10-16T03:49:23;4.38;;;2.00;;
16531;SDS011;8378;57.698;11.958;2022-10-16T03:51:49;3.10;;;1.88;;
16531;SDS011;8378;57.698;11.958;2022-10-16T03:54:14;3.05;;;1.70;;
16531;SDS011;8378;57.698;11.958;2022-10-16T03:56:40;3.05;;;1.52;;
16531;SDS011;8378;57.698;11.958;2022-10-16T03:59:05;3.67;;;1.70;;
16531;SDS011;8378;57.698;11.958;2022-10-16T04:01:31;4.22;;;2.08;;
16531;SDS011;8378;57.698;11.958;2022-10-16T04:03:56;2.38;;;1.70;;
16531;SDS011;8378;57.698;11.958;2022-10-16T04:06:22;3.03;;;1.85;;
16531;SDS011;8378;57.698;11.958;2022-10-16T04:08:48;2.75;;;1.70;;
16531;SDS011;8378;57.698;11.958;2022-10-16T04:11:14;3.22;;;1.80;;
16531;SDS011;8378;57.698;11.958;2022-10-16T04:13:39;2.60;;;1.50;;
16531;SDS011;8378;57.698;11.958;2022-10-16T04:16:05;2.97;;;1.52;;
16531;SDS011;8378;57.698;11.958;2022-10-16T04:18:30;3.70;;;1.80;;
16531;SDS011;8378;57.698;11.958;2022-10-16T04:20:56;2.33;;;1.52;;
16531;SDS011;8378;57.698;11.958;2022-10-16T04:23:21;2.92;;;1.80;;
16531;SDS011;8378;57.698;11.958;2022-10-16T04:25:48;2.42;;;1.48;;
16531;SDS011;8378;57.698;11.958;2022-10-16T04:28:14;2.72;;;1.75;;
16531;SDS011;8378;57.698;11.958;2022-10-16T04:30:39;3.30;;;1.73;;
16531;SDS011;8378;57.698;11.958;2022-10-16T04:33:05;3.58;;;1.65;;
16531;SDS011;8378;57.698;11.958;2022-10-16T04:35:30;2.75;;;1.60;;
16531;SDS011;8378;57.698;11.958;2022-10-16T04:37:59;3.03;;;1.90;;
16531;SDS011;8378;57.698;11.958;2022-10-16T04:40:24;2.38;;;1.60;;
16531;SDS011;8378;57.698;11.958;2022-10-16T04:42:50;2.63;;;1.48;;
16531;SDS011;8378;57.698;11.958;2022-10-16T04:45:16;2.58;;;1.77;;
16531;SDS011;8378;57.698;11.958;2022-10-16T04:47:41;3.67;;;1.75;;
16531;SDS011;8378;57.698;11.958;2022-10-16T04:50:07;3.65;;;1.83;;
16531;SDS011;8378;57.698;11.958;2022-10-16T04:52:33;2.60;;;1.40;;
16531;SDS011;8378;57.698;11.958;2022-10-16T04:54:59;2.15;;;1.67;;
16531;SDS011;8378;57.698;11.958;2022-10-16T04:57:27;2.53;;;1.52;;
16531;SDS011;8378;57.698;11.958;2022-10-16T04:59:53;2.85;;;1.70;;
16531;SDS011;8378;57.698;11.958;2022-10-16T05:02:19;3.20;;;1.73;;
16531;SDS011;8378;57.698;11.958;2022-10-16T05:04:45;2.67;;;1.60;;
16531;SDS011;8378;57.698;11.958;2022-10-16T05:07:10;2.72;;;1.55;;
16531;SDS011;8378;57.698;11.958;2022-10-16T05:09:36;3.05;;;1.50;;
16531;SDS011;8378;57.698;11.958;2022-10-16T05:12:02;2.72;;;1.60;;
16531;SDS011;8378;57.698;11.958;2022-10-16T05:14:28;3.45;;;1.70;;
16531;SDS011;8378;57.698;11.958;2022-10-16T05:16:54;2.63;;;1.60;;
16531;SDS011;8378;57.698;11.958;2022-10-16T05:19:20;2.63;;;1.60;;
16531;SDS011;8378;57.698;11.958;2022-10-16T05:21:45;1.88;;;1.33;;
16531;SDS011;8378;57.698;11.958;2022-10-16T05:24:11;3.20;;;1.60;;
16531;SDS011;8378;57.698;11.958;2022-10-16T05:26:36;2.13;;;1.60;;
16531;SDS011;8378;57.698;11.958;2022-10-16T05:29:02;2.85;;;1.70;;
16531;SDS011;8378;57.698;11.958;2022-10-16T05:31:28;2.85;;;1.50;;
16531;SDS011;8378;57.698;11.958;2022-10-16T05:33:57;3.70;;;1.70;;
16531;SDS011;8378;57.698;11.958;2022-10-16T05:36:23;3.28;;;1.80;;
16531;SDS011;8378;57.698;11.958;2022-10-16T05:38:50;2.35;;;1.70;;
16531;SDS011;8378;57.698;11.958;2022-10-16T05:41:16;2.47;;;1.60;;
16531;SDS011;8378;57.698;11.958;2022-10-16T05:43:46;2.63;;;1.65;;
16531;SDS011;8378;57.698;11.958;2022-10-16T05:46:12;2.80;;;1.80;;
16531;SDS011;8378;57.698;11.958;2022-10-16T05:48:38;2.72;;;1.52;;
16531;SDS011;8378;57.698;11.958;2022-10-16T05:51:08;2.38;;;1.50;;
16531;SDS011;8378;57.698;11.958;2022-10-16T05:53:37;2.72;;;1.90;;
16531;SDS011;8378;57.698;11.958;2022-10-16T05:56:03;2.78;;;1.50;;
16531;SDS011;8378;57.698;11.958;2022-10-16T05:58:30;2.65;;;1.65;;
16531;SDS011;8378;57.698;11.958;2022-10-16T06:01:04;3.90;;;1.98;;
16531;SDS011;8378;57.698;11.958;2022-10-16T06:03:32;3.05;;;2.00;;
16531;SDS011;8378;57.698;11.958;2022-10-16T06:05:59;2.97;;;1.65;;
16531;SDS011;8378;57.698;11.958;2022-10-16T06:08:31;3.13;;;1.70;;
16531;SDS011;8378;57.698;11.958;2022-10-16T06:11:07;2.50;;;1.75;;
16531;SDS011;8378;57.698;11.958;2022-10-16T06:13:34;2.17;;;1.48;;
16531;SDS011;8378;57.698;11.958;2022-10-16T06:16:00;3.67;;;1.90;;
16531;SDS011;8378;57.698;11.958;2022-10-16T06:18:27;2.35;;;1.60;;
16531;SDS011;8378;57.698;11.958;2022-10-16T06:20:53;2.47;;;1.60;;
16531;SDS011;8378;57.698;11.958;2022-10-16T06:23:20;3.00;;;1.77;;
16531;SDS011;8378;57.698;11.958;2022-10-16T06:25:45;3.53;;;1.70;;
16531;SDS011;8378;57.698;11.958;2022-10-16T06:28:11;2.22;;;1.60;;
16531;SDS011;8378;57.698;11.958;2022-10-16T06:30:38;2.60;;;1.40;;
16531;SDS011;8378;57.698;11.958;2022-10-16T06:33:04;2.83;;;1.48;;
16531;SDS011;8378;57.698;11.958;2022-10-16T06:35:30;2.60;;;1.50;;
16531;SDS011;8378;57.698;11.958;2022-10-16T06:37:56;1.80;;;1.48;;
16531;SDS011;8378;57.698;11.958;2022-10-16T06:40:22;1.98;;;1.60;;
16531;SDS011;8378;57.698;11.958;2022-10-16T06:42:48;3.75;;;1.92;;
16531;SDS011;8378;57.698;11.958;2022-10-16T06:45:13;3.28;;;1.80;;
16531;SDS011;8378;57.698;11.958;2022-10-16T06:47:39;2.28;;;1.88;;
16531;SDS011;8378;57.698;11.958;2022-10-16T06:50:05;3.17;;;1.80;;
16531;SDS011;8378;57.698;11.958;2022-10-16T06:52:32;2.60;;;1.65;;
16531;SDS011;8378;57.698;11.958;2022-10-16T06:54:58;2.55;;;1.65;;
16531;SDS011;8378;57.698;11.958;2022-10-16T06:57:24;2.97;;;1.70;;
16531;SDS011;8378;57.698;11.958;2022-10-16T06:59:50;1.73;;;1.50;;
16531;SDS011;8378;57.698;11.958;2022-10-16T07:02:15;1.92;;;1.50;;
16531;SDS011;8378;57.698;11.958;2022-10-16T07:04:41;3.95;;;1.73;;
16531;SDS011;8378;57.698;11.958;2022-10-16T07:07:06;3.17;;;1.77;;
16531;SDS011;8378;57.698;11.958;2022-10-16T07:09:32;3.35;;;1.70;;
16531;SDS011;8378;57.698;11.958;2022-10-16T07:11:58;3.65;;;1.50;;
16531;SDS011;8378;57.698;11.958;2022-10-16T07:14:23;4.10;;;1.88;;
16531;SDS011;8378;57.698;11.958;2022-10-16T07:16:49;2.95;;;1.70;;
16531;SDS011;8378;57.698;11.958;2022-10-16T07:19:15;2.67;;;1.65;;
16531;SDS011;8378;57.698;11.958;2022-10-16T07:21:42;2.65;;;1.67;;
16531;SDS011;8378;57.698;11.958;2022-10-16T07:24:15;2.65;;;1.70;;
16531;SDS011;8378;57.698;11.958;2022-10-16T07:26:43;1.83;;;1.52;;
16531;SDS011;8378;57.698;11.958;2022-10-16T07:29:13;2.67;;;1.60;;
16531;SDS011;8378;57.698;11.958;2022-10-16T07:31:45;2.28;;;1.58;;
16531;SDS011;8378;57.698;11.958;2022-10-16T07:34:12;2.20;;;1.40;;
16531;SDS011;8378;57.698;11.958;2022-10-16T07:36:38;2.13;;;1.55;;
16531;SDS011;8378;57.698;11.958;2022-10-16T07:39:04;2.17;;;1.42;;
16531;SDS011;8378;57.698;11.958;2022-10-16T07:41:30;3.17;;;1.80;;
16531;SDS011;8378;57.698;11.958;2022-10-16T07:43:58;3.47;;;1.58;;
16531;SDS011;8378;57.698;11.958;2022-10-16T07:46:27;3.08;;;1.50;;
16531;SDS011;8378;57.698;11.958;2022-10-16T07:48:52;5.10;;;1.60;;
16531;SDS011;8378;57.698;11.958;2022-10-16T07:51:19;2.55;;;1.80;;
16531;SDS011;8378;57.698;11.958;2022-10-16T07:53:49;2.95;;;1.65;;
16531;SDS011;8378;57.698;11.958;2022-10-16T07:56:16;3.17;;;1.83;;
16531;SDS011;8378;57.698;11.958;2022-10-16T07:58:42;2.42;;;1.52;;
16531;SDS011;8378;57.698;11.958;2022-10-16T08:01:09;2.00;;;1.50;;
16531;SDS011;8378;57.698;11.958;2022-10-16T08:03:42;2.85;;;1.60;;
16531;SDS011;8378;57.698;11.958;2022-10-16T08:06:18;2.38;;;1.40;;
16531;SDS011;8378;57.698;11.958;2022-10-16T08:08:44;2.38;;;1.50;;
16531;SDS011;8378;57.698;11.958;2022-10-16T08:11:10;2.75;;;1.60;;
16531;SDS011;8378;57.698;11.958;2022-10-16T08:13:36;3.08;;;1.42;;
16531;SDS011;8378;57.698;11.958;2022-10-16T08:16:02;4.57;;;1.70;;
16531;SDS011;8378;57.698;11.958;2022-10-16T08:18:32;2.58;;;1.40;;
16531;SDS011;8378;57.698;11.958;2022-10-16T08:21:05;1.95;;;1.40;;
16531;SDS011;8378;57.698;11.958;2022-10-16T08:23:32;3.53;;;1.65;;
16531;SDS011;8378;57.698;11.958;2022-10-16T08:26:02;3.35;;;1.80;;
16531;SDS011;8378;57.698;11.958;2022-10-16T08:28:30;3.60;;;1.77;;
16531;SDS011;8378;57.698;11.958;2022-10-16T08:30:56;3.17;;;1.63;;
16531;SDS011;8378;57.698;11.958;2022-10-16T08:33:29;2.58;;;1.52;;
16531;SDS011;8378;57.698;11.958;2022-10-16T08:35:54;2.95;;;1.58;;
16531;SDS011;8378;57.698;11.958;2022-10-16T08:38:20;5.53;;;1.95;;
16531;SDS011;8378;57.698;11.958;2022-10-16T08:40:46;3.05;;;1.67;;
16531;SDS011;8378;57.698;11.958;2022-10-16T08:43:21;2.63;;;1.60;;
16531;SDS011;8378;57.698;11.958;2022-10-16T08:48:52;2.22;;;1.50;;
16531;SDS011;8378;57.698;11.958;2022-10-16T08:51:24;3.45;;;1.92;;
16531;SDS011;8378;57.698;11.958;2022-10-16T08:54:04;2.45;;;1.45;;
16531;SDS011;8378;57.698;11.958;2022-10-16T08:56:50;2.20;;;1.48;;
16531;SDS011;8378;57.698;11.958;2022-10-16T08:59:16;4.28;;;1.90;;
16531;SDS011;8378;57.698;11.958;2022-10-16T09:01:46;4.32;;;1.70;;
16531;SDS011;8378;57.698;11.958;2022-10-16T09:06:56;2.58;;;1.70;;
16531;SDS011;8378;57.698;11.958;2022-10-16T09:09:49;3.10;;;1.77;;
16531;SDS011;8378;57.698;11.958;2022-10-16T09:17:50;4.93;;;2.80;;
16531;SDS011;8378;57.698;11.958;2022-10-16T09:25:30;4.30;;;2.72;;
16531;SDS011;8378;57.698;11.958;2022-10-16T09:27:57;5.25;;;3.25;;
16531;SDS011;8378;57.698;11.958;2022-10-16T09:30:22;5.13;;;3.10;;
16531;SDS011;8378;57.698;11.958;2022-10-16T09:32:52;4.28;;;3.08;;
16531;SDS011;8378;57.698;11.958;2022-10-16T09:38:29;4.88;;;2.75;;
16531;SDS011;8378;57.698;11.958;2022-10-16T09:40:57;3.83;;;2.97;;
16531;SDS011;8378;57.698;11.958;2022-10-16T09:46:34;4.50;;;3.33;;
16531;SDS011;8378;57.698;11.958;2022-10-16T09:49:20;5.30;;;3.28;;
16531;SDS011;8378;57.698;11.958;2022-10-16T09:51:46;4.70;;;3.90;;
16531;SDS011;8378;57.698;11.958;2022-10-16T09:56:42;4.80;;;3.65;;
16531;SDS011;8378;57.698;11.958;2022-10-16T09:59:14;5.63;;;4.18;;
16531;SDS011;8378;57.698;11.958;2022-10-16T10:01:45;5.43;;;3.80;;
16531;SDS011;8378;57.698;11.958;2022-10-16T10:04:16;5.80;;;3.97;;
16531;SDS011;8378;57.698;11.958;2022-10-16T10:06:50;4.82;;;4.22;;
16531;SDS011;8378;57.698;11.958;2022-10-16T10:09:30;6.43;;;4.30;;
16531;SDS011;8378;57.698;11.958;2022-10-16T10:12:04;6.20;;;4.40;;
16531;SDS011;8378;57.698;11.958;2022-10-16T10:14:32;6.68;;;4.65;;
16531;SDS011;8378;57.698;11.958;2022-10-16T10:17:09;8.35;;;4.30;;
16531;SDS011;8378;57.698;11.958;2022-10-16T10:35:49;5.90;;;4.00;;
16531;SDS011;8378;57.698;11.958;2022-10-16T10:38:37;5.13;;;3.75;;
16531;SDS011;8378;57.698;11.958;2022-10-16T10:49:39;6.00;;;3.85;;
16531;SDS011;8378;57.698;11.958;2022-10-16T10:55:27;5.40;;;3.90;;
16531;SDS011;8378;57.698;11.958;2022-10-16T10:58:10;4.97;;;3.50;;
16531;SDS011;8378;57.698;11.958;2022-10-16T11:03:23;5.22;;;3.70;;
16531;SDS011;8378;57.698;11.958;2022-10-16T11:06:23;6.28;;;4.00;;
16531;SDS011;8378;57.698;11.958;2022-10-16T11:08:55;7.25;;;4.20;;
16531;SDS011;8378;57.698;11.958;2022-10-16T11:11:44;5.47;;;3.97;;
16531;SDS011;8378;57.698;11.958;2022-10-16T11:14:40;6.43;;;4.03;;
16531;SDS011;8378;57.698;11.958;2022-10-16T11:17:15;5.95;;;3.95;;
16531;SDS011;8378;57.698;11.958;2022-10-16T11:22:54;8.00;;;4.00;;
16531;SDS011;8378;57.698;11.958;2022-10-16T11:25:28;5.22;;;3.60;;
16531;SDS011;8378;57.698;11.958;2022-10-16T11:28:01;5.70;;;3.97;;
16531;SDS011;8378;57.698;11.958;2022-10-16T11:37:11;5.13;;;3.20;;
16531;SDS011;8378;57.698;11.958;2022-10-16T11:39:41;5.40;;;3.50;;
16531;SDS011;8378;57.698;11.958;2022-10-16T11:42:22;5.38;;;3.65;;
16531;SDS011;8378;57.698;11.958;2022-10-16T11:47:58;6.82;;;3.40;;
16531;SDS011;8378;57.698;11.958;2022-10-16T11:50:31;5.10;;;3.63;;
16531;SDS011;8378;57.698;11.958;2022-10-16T11:55:43;4.95;;;3.67;;
16531;SDS011;8378;57.698;11.958;2022-10-16T11:58:15;5.10;;;3.60;;
16531;SDS011;8378;57.698;11.958;2022-10-16T12:03:20;6.35;;;4.25;;
16531;SDS011;8378;57.698;11.958;2022-10-16T12:08:45;5.97;;;4.72;;
16531;SDS011;8378;57.698;11.958;2022-10-16T12:11:33;6.22;;;4.20;;
16531;SDS011;8378;57.698;11.958;2022-10-16T12:16:32;6.20;;;4.47;;
16531;SDS011;8378;57.698;11.958;2022-10-16T12:19:12;6.95;;;4.40;;
16531;SDS011;8378;57.698;11.958;2022-10-16T12:21:39;6.30;;;4.13;;
16531;SDS011;8378;57.698;11.958;2022-10-16T12:24:05;5.88;;;3.75;;
16531;SDS011;8378;57.698;11.958;2022-10-16T12:26:44;5.22;;;4.00;;
16531;SDS011;8378;57.698;11.958;2022-10-16T12:29:53;5.63;;;3.92;;
16531;SDS011;8378;57.698;11.958;2022-10-16T12:32:03;6.15;;;3.70;;
16531;SDS011;8378;57.698;11.958;2022-10-16T12:37:08;6.05;;;3.95;;
16531;SDS011;8378;57.698;11.958;2022-10-16T12:39:36;6.50;;;4.25;;
16531;SDS011;8378;57.698;11.958;2022-10-16T12:42:04;5.65;;;3.60;;
16531;SDS011;8378;57.698;11.958;2022-10-16T12:44:44;5.05;;;3.72;;
16531;SDS011;8378;57.698;11.958;2022-10-16T12:47:19;5.25;;;3.70;;
16531;SDS011;8378;57.698;11.958;2022-10-16T12:49:59;6.05;;;3.70;;
16531;SDS011;8378;57.698;11.958;2022-10-16T12:54:51;5.97;;;3.95;;
16531;SDS011;8378;57.698;11.958;2022-10-16T13:03:04;6.38;;;4.70;;
16531;SDS011;8378;57.698;11.958;2022-10-16T13:11:41;5.53;;;4.68;;
16531;SDS011;8378;57.698;11.958;2022-10-16T13:23:03;6.00;;;4.25;;
16531;SDS011;8378;57.698;11.958;2022-10-16T13:28:42;5.05;;;3.70;;
16531;SDS011;8378;57.698;11.958;2022-10-16T13:31:13;5.45;;;3.55;;
16531;SDS011;8378;57.698;11.958;2022-10-16T13:33:46;5.28;;;3.60;;
16531;SDS011;8378;57.698;11.958;2022-10-16T13:36:19;4.28;;;3.60;;
16531;SDS011;8378;57.698;11.958;2022-10-16T13:38:47;5.05;;;3.60;;
16531;SDS011;8378;57.698;11.958;2022-10-16T13:41:16;3.85;;;3.33;;
16531;SDS011;8378;57.698;11.958;2022-10-16T13:43:44;5.05;;;3.42;;
16531;SDS011;8378;57.698;11.958;2022-10-16T13:46:24;5.63;;;3.65;;
16531;SDS011;8378;57.698;11.958;2022-10-16T13:48:56;4.35;;;2.83;;
16531;SDS011;8378;57.698;11.958;2022-10-16T13:51:27;5.22;;;3.17;;
16531;SDS011;8378;57.698;11.958;2022-10-16T13:53:54;4.38;;;3.20;;
16531;SDS011;8378;57.698;11.958;2022-10-16T13:56:22;5.13;;;3.15;;
16531;SDS011;8378;57.698;11.958;2022-10-16T13:59:02;6.00;;;3.00;;
16531;SDS011;8378;57.698;11.958;2022-10-16T14:01:30;4.32;;;2.88;;
16531;SDS011;8378;57.698;11.958;2022-10-16T14:04:08;5.00;;;3.10;;
16531;SDS011;8378;57.698;11.958;2022-10-16T14:06:36;4.43;;;2.80;;
16531;SDS011;8378;57.698;11.958;2022-10-16T14:09:07;3.72;;;2.50;;
16531;SDS011;8378;57.698;11.958;2022-10-16T14:11:44;3.10;;;2.42;;
16531;SDS011;8378;57.698;11.958;2022-10-16T14:14:13;4.15;;;2.67;;
16531;SDS011;8378;57.698;11.958;2022-10-16T14:16:40;3.75;;;2.38;;
16531;SDS011;8378;57.698;11.958;2022-10-16T14:19:20;5.28;;;2.53;;
16531;SDS011;8378;57.698;11.958;2022-10-16T14:21:50;5.72;;;2.40;;
16531;SDS011;8378;57.698;11.958;2022-10-16T14:24:25;4.28;;;2.55;;
16531;SDS011;8378;57.698;11.958;2022-10-16T14:26:56;3.67;;;2.40;;
16531;SDS011;8378;57.698;11.958;2022-10-16T14:29:22;4.15;;;2.38;;
16531;SDS011;8378;57.698;11.958;2022-10-16T14:34:32;3.65;;;2.45;;
16531;SDS011;8378;57.698;11.958;2022-10-16T14:37:00;3.38;;;2.58;;
16531;SDS011;8378;57.698;11.958;2022-10-16T14:39:33;5.00;;;3.10;;
16531;SDS011;8378;57.698;11.958;2022-10-16T14:42:00;4.25;;;3.13;;
16531;SDS011;8378;57.698;11.958;2022-10-16T14:44:31;6.78;;;4.13;;
16531;SDS011;8378;57.698;11.958;2022-10-16T14:46:58;4.13;;;3.60;;
16531;SDS011;8378;57.698;11.958;2022-10-16T14:49:34;5.57;;;3.90;;
16531;SDS011;8378;57.698;11.958;2022-10-16T14:51:59;6.38;;;4.20;;
16531;SDS011;8378;57.698;11.958;2022-10-16T14:54:26;6.10;;;4.18;;
16531;SDS011;8378;57.698;11.958;2022-10-16T14:56:55;5.43;;;4.30;;
16531;SDS011;8378;57.698;11.958;2022-10-16T14:59:27;6.70;;;4.20;;
16531;SDS011;8378;57.698;11.958;2022-10-16T15:02:00;5.65;;;4.20;;
16531;SDS011;8378;57.698;11.958;2022-10-16T15:04:47;8.23;;;4.72;;
16531;SDS011;8378;57.698;11.958;2022-10-16T15:07:13;5.20;;;3.75;;
16531;SDS011;8378;57.698;11.958;2022-10-16T15:09:39;5.63;;;3.92;;
16531;SDS011;8378;57.698;11.958;2022-10-16T15:12:05;6.32;;;4.35;;
16531;SDS011;8378;57.698;11.958;2022-10-16T15:14:31;5.57;;;3.88;;
16531;SDS011;8378;57.698;11.958;2022-10-16T15:16:56;5.57;;;4.00;;
16531;SDS011;8378;57.698;11.958;2022-10-16T15:19:22;4.68;;;3.33;;
16531;SDS011;8378;57.698;11.958;2022-10-16T15:21:48;7.38;;;3.95;;
16531;SDS011;8378;57.698;11.958;2022-10-16T15:24:14;6.93;;;3.78;;
16531;SDS011;8378;57.698;11.958;2022-10-16T15:26:40;6.45;;;3.80;;
16531;SDS011;8378;57.698;11.958;2022-10-16T15:29:06;5.43;;;3.30;;
16531;SDS011;8378;57.698;11.958;2022-10-16T15:31:32;5.53;;;3.72;;
16531;SDS011;8378;57.698;11.958;2022-10-16T15:33:58;4.80;;;3.00;;
16531;SDS011;8378;57.698;11.958;2022-10-16T15:36:29;4.40;;;2.80;;
16531;SDS011;8378;57.698;11.958;2022-10-16T15:38:58;5.15;;;3.20;;
16531;SDS011;8378;57.698;11.958;2022-10-16T15:41:24;6.18;;;3.20;;
16531;SDS011;8378;57.698;11.958;2022-10-16T15:43:50;4.97;;;3.25;;
16531;SDS011;8378;57.698;11.958;2022-10-16T15:46:20;5.07;;;3.30;;
16531;SDS011;8378;57.698;11.958;2022-10-16T15:48:50;4.55;;;2.92;;
16531;SDS011;8378;57.698;11.958;2022-10-16T15:51:20;4.38;;;2.95;;
16531;SDS011;8378;57.698;11.958;2022-10-16T15:53:45;5.00;;;2.60;;
16531;SDS011;8378;57.698;11.958;2022-10-16T15:56:11;4.90;;;2.75;;
16531;SDS011;8378;57.698;11.958;2022-10-16T15:58:38;4.82;;;2.88;;
16531;SDS011;8378;57.698;11.958;2022-10-16T16:01:04;3.95;;;3.17;;
16531;SDS011;8378;57.698;11.958;2022-10-16T16:03:30;6.43;;;3.38;;
16531;SDS011;8378;57.698;11.958;2022-10-16T16:05:57;5.60;;;3.67;;
16531;SDS011;8378;57.698;11.958;2022-10-16T16:08:23;6.30;;;3.75;;
16531;SDS011;8378;57.698;11.958;2022-10-16T16:11:01;6.10;;;4.00;;
16531;SDS011;8378;57.698;11.958;2022-10-16T16:13:29;5.97;;;3.65;;
16531;SDS011;8378;57.698;11.958;2022-10-16T16:15:54;6.15;;;4.07;;
16531;SDS011;8378;57.698;11.958;2022-10-16T16:18:20;6.32;;;4.05;;
16531;SDS011;8378;57.698;11.958;2022-10-16T16:20:46;4.93;;;3.75;;
16531;SDS011;8378;57.698;11.958;2022-10-16T16:23:12;6.25;;;4.07;;
16531;SDS011;8378;57.698;11.958;2022-10-16T16:25:37;6.05;;;3.92;;
16531;SDS011;8378;57.698;11.958;2022-10-16T16:28:03;5.05;;;3.95;;
16531;SDS011;8378;57.698;11.958;2022-10-16T16:30:29;6.15;;;4.10;;
16531;SDS011;8378;57.698;11.958;2022-10-16T16:32:54;8.38;;;4.57;;
16531;SDS011;8378;57.698;11.958;2022-10-16T16:35:20;5.55;;;4.15;;
16531;SDS011;8378;57.698;11.958;2022-10-16T16:37:46;5.60;;;3.85;;
16531;SDS011;8378;57.698;11.958;2022-10-16T16:40:12;4.68;;;3.45;;
16531;SDS011;8378;57.698;11.958;2022-10-16T16:42:38;4.18;;;3.55;;
16531;SDS011;8378;57.698;11.958;2022-10-16T16:45:04;5.03;;;3.80;;
16531;SDS011;8378;57.698;11.958;2022-10-16T16:47:30;6.53;;;3.53;;
16531;SDS011;8378;57.698;11.958;2022-10-16T16:49:56;6.13;;;3.63;;
16531;SDS011;8378;57.698;11.958;2022-10-16T16:52:21;6.53;;;3.28;;
16531;SDS011;8378;57.698;11.958;2022-10-16T16:54:47;6.25;;;3.90;;
16531;SDS011;8378;57.698;11.958;2022-10-16T16:57:17;5.82;;;3.65;;
16531;SDS011;8378;57.698;11.958;2022-10-16T16:59:45;5.85;;;3.72;;
16531;SDS011;8378;57.698;11.958;2022-10-16T17:02:11;4.97;;;3.72;;
16531;SDS011;8378;57.698;11.958;2022-10-16T17:04:37;6.45;;;4.38;;